Česky Dansk Deutsch English Español Suomi Français Magyar Italiano Nederlands norsk Polski Português svenska Türkçe

 

Het Weer

Kumamoto Airport (Japan)

13:00, 23 augustus 2016 (GMT-2)

 
WE
 
Home            
Kumamoto Airport Saga Airport Metabaru Ab Nagasaki Airport Fukuoka Airport Tsuiki Ab Nyutabaru Ab Oita Airport Sasebo Usn Kitakyushu Airport Kagoshima Airport Ashiya Ab Miyazaki Airport Yamaguchi Ube Airport Ozuki Ab Iki Airport Hofu Ab Kamigoto Kanoya Ab Ojika Island Fukue Airport Iwakuni Marine Corps Air Station Matsuyama Airport

Om een weerknop op uw website of weblog te plaatsen, copieer onderstaande code en plak die in uw pagina. In het eerste vakje staat HTML-code, in het tweede vakje UBB-code.


Add to Google

Details

Wind speed:3 bf, 8 kn, 4.1 m/s, 9.2 miles/h, 14.8 km/h
Wind direction:NNE, 020°
Visibility:Greater than 10000 m, 10 km, 32800 ft, 6.2 miles
Clouds:CAVOC
Temperature:29°C, 84°F
Gefühlte Temperatur:30°C, 86°F
Dew-point:19°C, 66°F
Atmospheric pressure:1004 hPa, 753.1 mmHg, 29.65 inHg, 0.991 atm
Relative humidity:54.9 %
METAR:RJFT 231100Z 02008KT CAVOK 29/19 Q1004

Snelkoppelingen

Actuele weersinformatie van de hele wereld. Voeg locaties toe met het plus (+) symbool. Deze snelkoppelingen kunnen worden toegevoegd aan Google.

Lid van de Technetium groep

website free tracking
StatCounter NetStat W3C Validator

24-04-2018 11:08:56
astro.technetium.be money.technetium.be phote.technetium.be tafeltennistafel.technetium.be www.ligfiets.net